Time;durP1;ratioP1;P1;durP2;ratioP2;P2;SDS_P1;SDS_P2;PMS_P1;PMS_P2;Temp;Humidity;BMP_temperature;BMP_pressure;BME280_temperature;BME280_humidity;BME280_pressure;Samples;Min_cycle;Max_cycle;Signal;HPM_P1;HPM_P2
2023/10/30 00:01:45;;;;;;;11.52;2.80;;;13.40;99.90;;;;;;4964803;28;20546;-70
2023/10/30 00:04:11;;;;;;;10.02;3.90;;;13.50;99.90;;;;;;4966706;28;20031;-70
2023/10/30 00:06:37;;;;;;;13.30;2.72;;;13.50;99.90;;;;;;4966561;28;20423;-70
2023/10/30 00:09:03;;;;;;;12.48;2.40;;;13.60;99.90;;;;;;4965312;28;20035;-70
2023/10/30 00:11:28;;;;;;;10.65;1.95;;;13.50;99.90;;;;;;4962273;28;20089;-70
2023/10/30 00:13:54;;;;;;;14.52;3.08;;;13.50;99.90;;;;;;4966353;28;20109;-70
2023/10/30 00:16:20;;;;;;;11.10;2.25;;;13.50;99.90;;;;;;4964429;28;20026;-70
2023/10/30 00:18:46;;;;;;;11.13;2.63;;;13.60;99.90;;;;;;4965965;28;20035;-70
2023/10/30 00:21:11;;;;;;;12.10;3.00;;;13.60;99.90;;;;;;4964486;28;20045;-71
2023/10/30 00:23:37;;;;;;;16.52;3.63;;;13.60;99.90;;;;;;4966435;28;20062;-70
2023/10/30 00:26:06;;;;;;;13.98;3.22;;;13.50;99.90;;;;;;4970184;28;20101;-70
2023/10/30 00:28:34;;;;;;;12.27;2.45;;;13.40;99.90;;;;;;4966275;28;20403;-70
2023/10/30 00:31:00;;;;;;;12.02;2.72;;;13.40;99.90;;;;;;4969679;28;20023;-70
2023/10/30 00:33:26;;;;;;;13.52;2.35;;;13.40;99.90;;;;;;4968492;28;20031;-70
2023/10/30 00:35:52;;;;;;;8.50;2.22;;;13.40;99.90;;;;;;4969410;28;22627;-70
2023/10/30 00:38:17;;;;;;;9.55;2.45;;;13.40;99.90;;;;;;4969974;28;20201;-70
2023/10/30 00:40:43;;;;;;;12.95;2.55;;;13.50;99.90;;;;;;4969258;28;20030;-70
2023/10/30 00:43:09;;;;;;;12.48;2.60;;;13.50;99.90;;;;;;4967521;28;20031;-70
2023/10/30 00:45:35;;;;;;;10.35;2.25;;;13.50;99.90;;;;;;4969017;28;20468;-70
2023/10/30 00:48:01;;;;;;;15.02;4.68;;;13.50;99.90;;;;;;4979829;28;20030;-70
2023/10/30 00:50:27;;;;;;;11.15;2.55;;;13.50;99.90;;;;;;4969249;28;20496;-70
2023/10/30 00:52:52;;;;;;;11.80;2.90;;;13.40;99.90;;;;;;4967215;28;20034;-70
2023/10/30 00:55:18;;;;;;;11.35;2.42;;;13.50;99.90;;;;;;4967099;28;20105;-70
2023/10/30 00:57:44;;;;;;;9.88;2.17;;;13.50;99.90;;;;;;4968962;28;20419;-70
2023/10/30 01:00:15;;;;;;;12.10;2.33;;;13.50;99.90;;;;;;4968141;28;20027;-70
2023/10/30 01:02:41;;;;;;;13.73;2.28;;;13.50;99.90;;;;;;4969999;28;20035;-70
2023/10/30 01:05:08;;;;;;;10.95;2.38;;;13.40;99.90;;;;;;4969054;28;20468;-70
2023/10/30 01:07:34;;;;;;;10.13;2.47;;;13.50;99.90;;;;;;4965330;28;20031;-70
2023/10/30 01:10:00;;;;;;;10.48;2.38;;;13.50;99.90;;;;;;4968479;28;20490;-70
2023/10/30 01:12:25;;;;;;;12.63;3.00;;;13.50;99.90;;;;;;4968200;28;20109;-70
2023/10/30 01:14:51;;;;;;;9.30;2.17;;;13.50;99.90;;;;;;4969101;28;20030;-70
2023/10/30 01:17:17;;;;;;;12.85;2.33;;;13.50;99.90;;;;;;4969405;28;20022;-70
2023/10/30 01:19:43;;;;;;;11.82;2.28;;;13.50;99.90;;;;;;4968081;28;20093;-70
2023/10/30 01:22:08;;;;;;;17.35;2.78;;;13.40;99.90;;;;;;4966092;28;20047;-70
2023/10/30 01:24:34;;;;;;;11.25;2.40;;;13.50;99.90;;;;;;4967979;28;20030;-71
2023/10/30 01:27:00;;;;;;;10.63;2.10;;;13.50;99.90;;;;;;4968285;28;20111;-70
2023/10/30 01:29:25;;;;;;;11.93;2.30;;;13.40;99.90;;;;;;4968971;28;20071;-70
2023/10/30 01:31:51;;;;;;;13.95;2.67;;;13.50;99.90;;;;;;4968896;28;20023;-71
2023/10/30 01:34:17;;;;;;;15.02;2.10;;;13.40;99.90;;;;;;4968652;28;20030;-70
2023/10/30 01:36:42;;;;;;;12.32;2.33;;;13.40;99.90;;;;;;4967889;28;20042;-70
2023/10/30 01:39:08;;;;;;;14.50;2.53;;;13.40;99.90;;;;;;4968541;28;20037;-71
2023/10/30 01:41:33;;;;;;;15.63;2.72;;;13.50;99.90;;;;;;4963036;28;20046;-71
2023/10/30 01:43:59;;;;;;;11.90;2.72;;;13.50;99.90;;;;;;4968607;28;20029;-71
2023/10/30 01:46:25;;;;;;;15.93;2.33;;;13.40;99.90;;;;;;4963924;28;20022;-70
2023/10/30 01:48:51;;;;;;;16.38;2.55;;;13.40;99.90;;;;;;4967954;28;20051;-71
2023/10/30 01:51:17;;;;;;;11.88;3.25;;;13.40;99.90;;;;;;4964570;28;20027;-70
2023/10/30 01:53:44;;;;;;;15.18;2.75;;;13.40;99.90;;;;;;4968088;28;20031;-70
2023/10/30 01:56:10;;;;;;;8.45;2.20;;;13.40;99.90;;;;;;4968102;28;20018;-70
2023/10/30 01:58:36;;;;;;;8.50;2.35;;;13.40;99.90;;;;;;4964679;28;20027;-70
2023/10/30 02:01:02;;;;;;;9.30;2.58;;;13.40;99.90;;;;;;4967493;28;20105;-70
2023/10/30 02:03:28;;;;;;;12.93;2.30;;;13.40;99.90;;;;;;4967605;28;20031;-70
2023/10/30 02:05:54;;;;;;;13.27;3.08;;;13.40;99.90;;;;;;4965122;28;20031;-70
2023/10/30 02:08:20;;;;;;;7.80;2.17;;;13.40;99.90;;;;;;4968221;28;20023;-70
2023/10/30 02:10:46;;;;;;;13.27;1.95;;;13.40;99.90;;;;;;4964695;28;20512;-70
2023/10/30 02:13:12;;;;;;;8.02;2.28;;;13.40;99.90;;;;;;4967737;28;20062;-70
2023/10/30 02:15:37;;;;;;;11.88;1.90;;;13.50;99.90;;;;;;4964436;28;20783;-70
2023/10/30 02:18:03;;;;;;;15.48;2.85;;;13.50;99.90;;;;;;4967445;28;20373;-70
2023/10/30 02:20:29;;;;;;;12.52;2.28;;;13.50;99.90;;;;;;4966771;28;20042;-70
2023/10/30 02:22:55;;;;;;;9.20;2.17;;;13.50;99.90;;;;;;4966447;28;20046;-70
2023/10/30 02:25:24;;;;;;;8.77;2.35;;;13.50;99.90;;;;;;4967148;28;20488;-70
2023/10/30 02:27:53;;;;;;;8.60;2.17;;;13.50;99.90;;;;;;4967861;28;20027;-70
2023/10/30 02:30:20;;;;;;;11.05;2.35;;;13.50;99.90;;;;;;4964537;28;20018;-70
2023/10/30 02:32:47;;;;;;;9.50;2.13;;;13.50;99.90;;;;;;4968108;28;20027;-71
2023/10/30 02:35:14;;;;;;;10.82;2.10;;;13.50;99.90;;;;;;4963529;28;20035;-70
2023/10/30 02:37:40;;;;;;;12.45;2.42;;;13.50;99.90;;;;;;4967247;28;20105;-70
2023/10/30 02:40:07;;;;;;;5.65;1.75;;;13.40;99.90;;;;;;4966798;28;20050;-71
2023/10/30 02:42:33;;;;;;;11.65;2.00;;;13.40;99.90;;;;;;4967493;28;20039;-70
2023/10/30 02:44:59;;;;;;;14.82;2.78;;;13.40;99.90;;;;;;4966947;28;20054;-70
2023/10/30 02:47:24;;;;;;;9.02;2.17;;;13.40;99.90;;;;;;4963397;28;20114;-71
2023/10/30 02:49:51;;;;;;;12.18;2.10;;;13.40;99.90;;;;;;4966546;28;20026;-70
2023/10/30 02:52:18;;;;;;;12.05;2.70;;;13.40;99.90;;;;;;4966434;28;20093;-70
2023/10/30 02:54:46;;;;;;;11.85;2.40;;;13.40;99.90;;;;;;4966484;28;20023;-71
2023/10/30 02:57:13;;;;;;;8.30;2.05;;;13.50;99.90;;;;;;4963652;28;20031;-70
2023/10/30 02:59:39;;;;;;;13.63;2.47;;;13.50;99.90;;;;;;4967167;28;20109;-71
2023/10/30 03:02:05;;;;;;;11.27;2.30;;;13.50;99.90;;;;;;4962436;28;20073;-70
2023/10/30 03:04:30;;;;;;;8.40;2.35;;;13.50;99.90;;;;;;4966773;28;20468;-71
2023/10/30 03:06:59;;;;;;;10.40;2.22;;;13.50;99.90;;;;;;4967231;28;20031;-70
2023/10/30 03:09:30;;;;;;;12.50;2.20;;;13.50;99.90;;;;;;4963514;28;20046;-71
2023/10/30 03:11:56;;;;;;;6.95;1.75;;;13.50;99.90;;;;;;4965186;28;20035;-70
2023/10/30 03:14:22;;;;;;;11.05;2.15;;;13.40;99.90;;;;;;4967090;28;20030;-71
2023/10/30 03:16:47;;;;;;;11.13;2.35;;;13.40;99.90;;;;;;4965297;28;20042;-70
2023/10/30 03:19:13;;;;;;;9.15;2.47;;;13.40;99.90;;;;;;4965087;28;20122;-71
2023/10/30 03:21:39;;;;;;;12.27;2.42;;;13.40;99.90;;;;;;4980832;28;20037;-70
2023/10/30 03:24:05;;;;;;;14.27;2.53;;;13.40;99.90;;;;;;4966999;28;20472;-71
2023/10/30 03:26:30;;;;;;;13.25;2.83;;;13.40;99.90;;;;;;4966421;28;20116;-71
2023/10/30 03:28:56;;;;;;;10.50;2.08;;;13.50;99.90;;;;;;4962772;28;20085;-71
2023/10/30 03:31:22;;;;;;;11.43;2.50;;;13.50;99.90;;;;;;4965194;28;20038;-70
2023/10/30 03:33:48;;;;;;;12.27;2.28;;;13.40;99.90;;;;;;4967245;28;22343;-70
2023/10/30 03:36:22;;;;;;;9.73;2.38;;;13.40;99.90;;;;;;4966500;28;20491;-70
2023/10/30 03:38:48;;;;;;;12.05;2.53;;;13.40;99.90;;;;;;4965947;28;20027;-70
2023/10/30 03:41:14;;;;;;;12.02;2.13;;;13.40;99.90;;;;;;4964317;28;20035;-71
2023/10/30 03:43:40;;;;;;;9.80;2.08;;;13.40;99.90;;;;;;4966388;28;20030;-71
2023/10/30 03:46:05;;;;;;;15.20;2.47;;;13.40;99.90;;;;;;4963376;28;20037;-70
2023/10/30 03:48:31;;;;;;;11.25;2.65;;;13.40;99.90;;;;;;4967256;28;20031;-71
2023/10/30 03:50:57;;;;;;;11.07;1.98;;;13.40;99.90;;;;;;4962794;28;20110;-70
2023/10/30 03:53:23;;;;;;;9.20;1.73;;;13.40;99.90;;;;;;4965781;28;20027;-71
2023/10/30 03:55:49;;;;;;;11.38;2.63;;;13.40;99.90;;;;;;4966361;28;20041;-70
2023/10/30 03:58:15;;;;;;;16.98;2.33;;;13.40;99.90;;;;;;4968240;28;20042;-71
2023/10/30 04:00:41;;;;;;;19.00;2.92;;;13.40;99.90;;;;;;4966489;28;20034;-70
2023/10/30 04:03:08;;;;;;;10.05;2.83;;;13.40;99.90;;;;;;4970068;28;20027;-71
2023/10/30 04:05:34;;;;;;;10.43;2.35;;;13.40;99.90;;;;;;4967377;28;20030;-71
2023/10/30 04:08:00;;;;;;;14.43;3.03;;;13.50;99.90;;;;;;4969821;28;20041;-70
2023/10/30 04:10:26;;;;;;;14.77;2.90;;;13.40;99.90;;;;;;4966725;28;20019;-70
2023/10/30 04:12:52;;;;;;;11.05;2.60;;;13.40;99.90;;;;;;4969683;28;20138;-70
2023/10/30 04:15:18;;;;;;;12.80;2.95;;;13.30;99.90;;;;;;4970535;28;20023;-70
2023/10/30 04:17:44;;;;;;;12.80;2.45;;;13.40;99.90;;;;;;4966866;28;20054;-70
2023/10/30 04:20:10;;;;;;;13.25;2.70;;;13.30;99.90;;;;;;4968622;28;20034;-70
2023/10/30 04:22:36;;;;;;;10.57;2.90;;;13.30;99.90;;;;;;4968177;28;20041;-70
2023/10/30 04:25:03;;;;;;;12.65;2.67;;;13.30;99.90;;;;;;4970080;28;20113;-70
2023/10/30 04:27:29;;;;;;;20.95;2.45;;;13.20;99.90;;;;;;4964968;28;20027;-70
2023/10/30 04:29:54;;;;;;;9.57;2.03;;;13.20;99.90;;;;;;4970362;28;21488;-70
2023/10/30 04:32:20;;;;;;;10.20;2.25;;;13.30;99.90;;;;;;4970067;28;20035;-70
2023/10/30 04:34:46;;;;;;;10.68;2.17;;;13.30;99.90;;;;;;4969937;28;20027;-70
2023/10/30 04:37:13;;;;;;;9.70;2.13;;;13.30;99.90;;;;;;4968900;28;20026;-70
2023/10/30 04:39:39;;;;;;;13.73;2.05;;;13.30;99.90;;;;;;4966423;28;20152;-69
2023/10/30 04:42:05;;;;;;;8.98;2.20;;;13.30;99.90;;;;;;4968960;28;20588;-70
2023/10/30 04:44:30;;;;;;;13.80;2.00;;;13.20;99.90;;;;;;4971068;28;20026;-70
2023/10/30 04:46:56;;;;;;;9.82;2.35;;;13.30;99.90;;;;;;4970748;28;20066;-70
2023/10/30 04:49:22;;;;;;;8.45;2.30;;;13.30;99.90;;;;;;4975353;28;20034;-70
2023/10/30 04:51:47;;;;;;;15.93;2.65;;;13.30;99.90;;;;;;4972251;28;20031;-70
2023/10/30 04:54:13;;;;;;;7.90;2.15;;;13.30;99.90;;;;;;4975718;28;20019;-70
2023/10/30 04:56:39;;;;;;;14.52;2.78;;;13.20;99.90;;;;;;4965245;28;20464;-70
2023/10/30 04:59:04;;;;;;;13.93;2.55;;;13.20;99.90;;;;;;4972639;28;20073;-70
2023/10/30 05:01:30;;;;;;;11.88;2.42;;;13.20;99.90;;;;;;4975151;28;20399;-70
2023/10/30 05:03:57;;;;;;;10.98;2.30;;;13.20;99.90;;;;;;4970324;28;20412;-70
2023/10/30 05:06:22;;;;;;;11.52;2.28;;;13.20;99.90;;;;;;4974238;28;20031;-69
2023/10/30 05:08:48;;;;;;;11.05;2.50;;;13.10;99.90;;;;;;4974809;28;20492;-70
2023/10/30 05:11:14;;;;;;;10.48;2.80;;;13.20;99.90;;;;;;4974361;28;20114;-70
2023/10/30 05:13:39;;;;;;;14.60;2.55;;;13.10;99.90;;;;;;4975174;28;20026;-70
2023/10/30 05:16:05;;;;;;;12.40;2.80;;;13.10;99.90;;;;;;4974482;28;20031;-70
2023/10/30 05:18:31;;;;;;;14.63;2.53;;;13.10;99.90;;;;;;4971722;28;20495;-70
2023/10/30 05:20:57;;;;;;;7.85;2.22;;;13.00;99.90;;;;;;4974793;28;20069;-70
2023/10/30 05:23:24;;;;;;;15.70;3.22;;;13.10;99.90;;;;;;4970980;28;20035;-70
2023/10/30 05:25:50;;;;;;;13.98;2.55;;;13.10;99.90;;;;;;4972889;28;20041;-70
2023/10/30 05:28:16;;;;;;;11.20;2.42;;;13.10;99.90;;;;;;4972679;28;20102;-71
2023/10/30 05:30:41;;;;;;;13.75;2.95;;;13.00;99.90;;;;;;4974528;28;20034;-70
2023/10/30 05:33:07;;;;;;;15.45;2.40;;;12.90;99.90;;;;;;4973687;28;20100;-70
2023/10/30 05:35:33;;;;;;;13.88;2.95;;;13.00;99.90;;;;;;4974628;28;20109;-70
2023/10/30 05:37:59;;;;;;;9.60;2.13;;;13.00;99.90;;;;;;4972828;28;20031;-70
2023/10/30 05:40:24;;;;;;;9.93;2.63;;;13.00;99.90;;;;;;4974864;28;20027;-70
2023/10/30 05:42:50;;;;;;;7.68;1.92;;;12.90;99.90;;;;;;4974229;28;20094;-70
2023/10/30 05:45:16;;;;;;;9.93;2.22;;;13.00;99.90;;;;;;4974606;28;20025;-69
2023/10/30 05:47:41;;;;;;;17.90;2.30;;;13.00;99.90;;;;;;4970770;28;20031;-70
2023/10/30 05:50:09;;;;;;;9.60;2.33;;;13.00;99.90;;;;;;4973698;28;20023;-70
2023/10/30 05:52:35;;;;;;;12.23;2.65;;;12.90;99.90;;;;;;4969411;28;20031;-70
2023/10/30 05:55:01;;;;;;;13.65;2.53;;;12.90;99.90;;;;;;4974054;28;20023;-70
2023/10/30 05:57:26;;;;;;;12.13;3.55;;;12.80;99.90;;;;;;4971924;28;20030;-70
2023/10/30 05:59:52;;;;;;;13.93;3.83;;;12.90;99.90;;;;;;4973717;28;20448;-70
2023/10/30 06:02:18;;;;;;;14.57;3.60;;;12.90;99.90;;;;;;4973125;28;20041;-69
2023/10/30 06:04:43;;;;;;;11.45;3.35;;;12.90;99.90;;;;;;4968583;28;20023;-70
2023/10/30 06:07:09;;;;;;;11.82;2.75;;;12.90;99.90;;;;;;4972698;28;20089;-70
2023/10/30 06:09:35;;;;;;;15.65;2.53;;;12.90;99.90;;;;;;4970610;28;20026;-70
2023/10/30 06:12:00;;;;;;;12.68;2.58;;;12.90;99.90;;;;;;4971484;28;20062;-70
2023/10/30 06:14:27;;;;;;;13.32;2.78;;;12.80;99.90;;;;;;4973238;28;20038;-70
2023/10/30 06:16:53;;;;;;;16.92;3.15;;;12.80;99.90;;;;;;4973783;28;20037;-70
2023/10/30 06:19:18;;;;;;;8.55;2.15;;;12.70;99.90;;;;;;4970923;28;20022;-70
2023/10/30 06:21:44;;;;;;;17.45;3.25;;;12.70;99.90;;;;;;4971509;28;20054;-71
2023/10/30 06:24:10;;;;;;;18.00;2.58;;;12.70;99.90;;;;;;4972831;28;20369;-70
2023/10/30 06:26:40;;;;;;;11.45;3.00;;;12.70;99.90;;;;;;4986428;28;20031;-70
2023/10/30 06:29:06;;;;;;;15.57;2.60;;;12.60;99.90;;;;;;4973345;28;20621;-69
2023/10/30 06:31:32;;;;;;;13.13;2.53;;;12.60;99.90;;;;;;4973399;28;20030;-70
2023/10/30 06:33:58;;;;;;;19.10;3.03;;;12.60;99.90;;;;;;4970018;28;20999;-70
2023/10/30 06:36:23;;;;;;;15.05;4.63;;;12.60;99.90;;;;;;4972924;28;20054;-71
2023/10/30 06:38:49;;;;;;;19.05;6.28;;;12.60;99.90;;;;;;4974072;28;20022;-70
2023/10/30 06:41:15;;;;;;;22.55;5.97;;;12.50;99.90;;;;;;4970737;28;20061;-69
2023/10/30 06:43:40;;;;;;;14.88;4.43;;;12.60;99.90;;;;;;4972680;28;20134;-70
2023/10/30 06:46:06;;;;;;;28.92;11.18;;;12.50;99.90;;;;;;4969973;28;20484;-71
2023/10/30 06:48:32;;;;;;;26.45;8.77;;;12.50;99.90;;;;;;4970660;28;20046;-70
2023/10/30 06:50:58;;;;;;;32.63;9.35;;;12.50;99.90;;;;;;4970079;28;20099;-70
2023/10/30 06:53:24;;;;;;;26.25;8.05;;;12.50;99.90;;;;;;4967709;28;20045;-70
2023/10/30 06:55:51;;;;;;;22.40;5.20;;;12.50;99.90;;;;;;4972823;28;20026;-70
2023/10/30 06:58:23;;;;;;;18.33;3.78;;;12.50;99.90;;;;;;4968070;28;20018;-70
2023/10/30 07:00:49;;;;;;;20.23;4.13;;;12.50;99.90;;;;;;4969638;28;20058;-70
2023/10/30 07:03:15;;;;;;;14.43;3.47;;;12.50;99.90;;;;;;4973119;28;20030;-70
2023/10/30 07:05:42;;;;;;;17.42;4.70;;;12.60;99.90;;;;;;4969281;28;20025;-70
2023/10/30 07:08:08;;;;;;;17.58;6.90;;;12.50;99.90;;;;;;4970999;28;20034;-71
2023/10/30 07:10:35;;;;;;;22.58;5.40;;;12.50;99.90;;;;;;4972932;28;20379;-72
2023/10/30 07:13:01;;;;;;;20.10;4.65;;;12.50;99.90;;;;;;4973103;28;20102;-70
2023/10/30 07:15:26;;;;;;;14.77;3.15;;;12.60;99.90;;;;;;4970210;28;20027;-69
2023/10/30 07:17:55;;;;;;;13.60;2.80;;;12.50;99.90;;;;;;4973152;28;20042;-71
2023/10/30 07:20:21;;;;;;;14.90;3.05;;;12.50;99.90;;;;;;4970557;28;20035;-70
2023/10/30 07:22:46;;;;;;;12.57;3.08;;;12.50;99.90;;;;;;4970777;28;20547;-72
2023/10/30 07:25:12;;;;;;;11.77;2.55;;;12.50;99.90;;;;;;4969513;28;20070;-71
2023/10/30 07:27:38;;;;;;;14.77;3.13;;;12.50;99.90;;;;;;4971266;28;20488;-70
2023/10/30 07:30:04;;;;;;;17.80;4.40;;;12.60;99.90;;;;;;4969354;28;20037;-71
2023/10/30 07:32:30;;;;;;;21.60;3.75;;;12.70;99.90;;;;;;4969269;28;20042;-71
2023/10/30 07:34:56;;;;;;;13.82;2.92;;;12.70;99.90;;;;;;4968708;28;20031;-69
2023/10/30 07:37:22;;;;;;;14.68;3.20;;;12.80;99.90;;;;;;4970642;28;20130;-70
2023/10/30 07:39:47;;;;;;;11.50;2.85;;;12.80;99.90;;;;;;4973315;28;20015;-70
2023/10/30 07:42:14;;;;;;;11.82;2.88;;;12.80;99.90;;;;;;4971279;28;20042;-71
2023/10/30 07:44:40;;;;;;;14.18;2.70;;;12.90;99.90;;;;;;4970118;28;20300;-71
2023/10/30 07:47:05;;;;;;;10.18;2.13;;;12.90;99.90;;;;;;4971876;28;20079;-71
2023/10/30 07:49:32;;;;;;;12.30;2.72;;;12.90;99.90;;;;;;4967803;28;20035;-72
2023/10/30 07:51:58;;;;;;;15.27;2.70;;;13.00;99.90;;;;;;4970977;28;20022;-70
2023/10/30 07:54:27;;;;;;;9.10;2.38;;;13.00;99.90;;;;;;4972503;28;20448;-70
2023/10/30 07:56:53;;;;;;;10.40;2.90;;;13.00;99.90;;;;;;4964547;28;20035;-72
2023/10/30 07:59:19;;;;;;;11.02;2.67;;;13.10;99.90;;;;;;4970502;28;20042;-71
2023/10/30 08:01:45;;;;;;;13.43;3.55;;;13.00;99.90;;;;;;4968053;28;20047;-71
2023/10/30 08:04:11;;;;;;;11.13;2.55;;;13.10;99.90;;;;;;4970328;28;20033;-70
2023/10/30 08:06:37;;;;;;;8.70;2.65;;;13.10;99.90;;;;;;4970578;28;20030;-70
2023/10/30 08:09:03;;;;;;;10.00;2.75;;;13.20;99.90;;;;;;4970302;28;20030;-70
2023/10/30 08:11:30;;;;;;;8.93;2.80;;;13.20;99.90;;;;;;4971458;28;20027;-72
2023/10/30 08:13:55;;;;;;;7.72;2.25;;;13.30;99.90;;;;;;4967350;28;20023;-71
2023/10/30 08:16:21;;;;;;;11.13;2.95;;;13.30;99.90;;;;;;4968072;28;20476;-69
2023/10/30 08:18:47;;;;;;;14.45;2.75;;;13.30;99.90;;;;;;4970615;28;20023;-69
2023/10/30 08:21:13;;;;;;;13.23;1.98;;;13.30;99.90;;;;;;4968463;28;20374;-68
2023/10/30 08:23:39;;;;;;;12.85;2.45;;;13.40;99.90;;;;;;4965335;28;20042;-69
2023/10/30 08:26:08;;;;;;;10.68;2.35;;;13.50;99.90;;;;;;4968771;28;20165;-70
2023/10/30 08:28:38;;;;;;;14.90;2.92;;;13.50;99.90;;;;;;4985287;28;20035;-74
2023/10/30 08:31:04;;;;;;;17.17;2.70;;;13.60;99.90;;;;;;4966937;28;20037;-77
2023/10/30 08:33:30;;;;;;;10.23;2.50;;;13.60;99.90;;;;;;4985691;28;20034;-70
2023/10/30 08:35:56;;;;;;;10.32;2.20;;;13.70;99.90;;;;;;4970768;28;20026;-68
2023/10/30 08:38:22;;;;;;;11.45;2.60;;;13.70;99.90;;;;;;4986132;28;20418;-80
2023/10/30 08:40:48;;;;;;;9.45;2.15;;;13.70;99.90;;;;;;4968062;28;20534;-70
2023/10/30 08:43:14;;;;;;;12.25;2.30;;;13.80;99.90;;;;;;4964971;28;20030;-74
2023/10/30 08:45:41;;;;;;;12.00;2.13;;;13.90;99.90;;;;;;4974191;28;20118;-74
2023/10/30 08:48:07;;;;;;;13.88;2.55;;;13.90;99.90;;;;;;4975497;28;20663;-69
2023/10/30 08:50:32;;;;;;;16.67;2.33;;;13.90;99.90;;;;;;4987690;28;20117;-70
2023/10/30 08:52:58;;;;;;;16.60;2.30;;;14.00;99.90;;;;;;4973362;28;20039;-75
2023/10/30 08:55:24;;;;;;;14.05;2.40;;;14.00;99.90;;;;;;4970934;28;20529;-70
2023/10/30 08:57:50;;;;;;;12.40;2.42;;;14.00;99.90;;;;;;4967809;28;20129;-76
2023/10/30 09:00:16;;;;;;;8.27;2.33;;;14.10;99.90;;;;;;4969527;28;20022;-75
2023/10/30 09:02:42;;;;;;;10.25;2.58;;;14.10;99.90;;;;;;4969823;28;20031;-72
2023/10/30 09:05:08;;;;;;;10.55;2.03;;;14.20;99.90;;;;;;4970921;28;20027;-73
2023/10/30 09:07:34;;;;;;;9.30;2.03;;;14.20;99.90;;;;;;4969685;28;20388;-71
2023/10/30 09:10:00;;;;;;;14.85;2.85;;;14.20;99.90;;;;;;4973538;28;20452;-74
2023/10/30 09:12:26;;;;;;;17.50;3.03;;;14.20;99.90;;;;;;4970049;28;20026;-72
2023/10/30 09:14:52;;;;;;;12.65;2.50;;;14.10;99.90;;;;;;4972132;28;20047;-70
2023/10/30 09:17:19;;;;;;;13.68;2.33;;;14.20;99.90;;;;;;4970267;28;20057;-72
2023/10/30 09:19:45;;;;;;;10.02;1.75;;;14.20;99.90;;;;;;4967801;28;20507;-74
2023/10/30 09:22:11;;;;;;;9.55;2.30;;;14.20;99.90;;;;;;4974905;28;20042;-73
2023/10/30 09:24:36;;;;;;;12.57;2.15;;;14.30;99.90;;;;;;4976124;28;20021;-74
2023/10/30 09:27:03;;;;;;;12.30;2.17;;;14.30;99.90;;;;;;4973051;28;20031;-82
2023/10/30 09:29:28;;;;;;;9.00;2.70;;;14.30;99.90;;;;;;4971923;28;20480;-76
2023/10/30 09:31:55;;;;;;;8.95;2.60;;;14.30;99.90;;;;;;4989999;28;20042;-74
2023/10/30 09:34:21;;;;;;;14.40;2.83;;;14.40;99.90;;;;;;4972513;28;20102;-73
2023/10/30 09:36:47;;;;;;;10.20;2.70;;;14.50;99.90;;;;;;4972273;28;20117;-76
2023/10/30 09:39:13;;;;;;;11.00;2.63;;;14.50;99.90;;;;;;4969676;28;20028;-69
2023/10/30 09:41:43;;;;;;;7.85;2.47;;;14.50;99.90;;;;;;4985584;28;20042;-75
2023/10/30 09:44:10;;;;;;;13.73;2.67;;;14.50;99.90;;;;;;4970706;28;20487;-75
2023/10/30 09:46:40;;;;;;;8.27;1.70;;;14.50;99.90;;;;;;4966152;28;20038;-72
2023/10/30 09:49:09;;;;;;;13.10;1.85;;;14.50;99.90;;;;;;4973461;28;20039;-75
2023/10/30 09:51:37;;;;;;;8.32;1.95;;;14.50;99.90;;;;;;4989892;28;20113;-81
2023/10/30 09:54:04;;;;;;;7.30;1.55;;;14.50;99.90;;;;;;4974694;28;20038;-69
2023/10/30 09:56:32;;;;;;;13.23;2.15;;;14.50;99.90;;;;;;4989179;28;20498;-70
2023/10/30 09:58:59;;;;;;;12.18;2.90;;;14.60;99.90;;;;;;4972299;28;20401;-74
2023/10/30 10:01:26;;;;;;;11.80;2.08;;;14.60;99.90;;;;;;4972644;28;20038;-77
2023/10/30 10:03:52;;;;;;;7.97;1.80;;;14.70;99.90;;;;;;4971645;28;20469;-80
2023/10/30 10:06:18;;;;;;;10.75;2.20;;;14.70;99.90;;;;;;4972266;28;20015;-79
2023/10/30 10:08:46;;;;;;;6.82;1.80;;;14.70;99.90;;;;;;4979238;28;20058;-72
2023/10/30 10:11:12;;;;;;;10.23;2.30;;;14.80;99.90;;;;;;4973679;28;20030;-79
2023/10/30 10:13:40;;;;;;;8.85;2.08;;;14.70;99.90;;;;;;4972701;28;20779;-69
2023/10/30 10:16:06;;;;;;;9.18;1.70;;;14.80;99.90;;;;;;4973724;28;20046;-71
2023/10/30 10:18:34;;;;;;;8.73;2.08;;;14.80;99.90;;;;;;4973098;28;20085;-72
2023/10/30 10:21:07;;;;;;;10.05;2.08;;;14.80;99.90;;;;;;4973451;28;20437;-71
2023/10/30 10:23:35;;;;;;;6.13;2.05;;;14.90;99.90;;;;;;4985856;28;20110;-69
2023/10/30 10:26:13;;;;;;;8.40;1.83;;;14.90;99.90;;;;;;4971932;28;20085;-73
2023/10/30 10:28:41;;;;;;;7.18;1.90;;;14.90;99.90;;;;;;4971099;28;20031;-78
2023/10/30 10:31:07;;;;;;;7.63;2.00;;;15.00;99.90;;;;;;4968017;28;20447;-68
2023/10/30 10:33:34;;;;;;;6.47;1.50;;;15.00;99.90;;;;;;4973687;28;20023;-69
2023/10/30 10:36:02;;;;;;;8.05;1.65;;;14.90;99.90;;;;;;4973699;28;20123;-69
2023/10/30 10:38:28;;;;;;;11.50;2.05;;;15.00;99.90;;;;;;4970929;28;20035;-68
2023/10/30 10:40:57;;;;;;;8.23;1.85;;;15.00;99.90;;;;;;4972640;28;20033;-69
2023/10/30 10:43:29;;;;;;;5.35;1.52;;;15.00;99.90;;;;;;4973698;28;20030;-68
2023/10/30 10:45:56;;;;;;;7.25;2.08;;;15.00;99.90;;;;;;4969920;28;20031;-68
2023/10/30 10:48:27;;;;;;;9.82;1.42;;;15.10;99.90;;;;;;4973394;28;20090;-71
2023/10/30 10:50:55;;;;;;;8.60;1.63;;;15.10;99.90;;;;;;4973024;28;20106;-69
2023/10/30 10:53:23;;;;;;;10.02;1.92;;;15.10;99.90;;;;;;4972104;28;20049;-70
2023/10/30 10:55:50;;;;;;;5.68;1.83;;;15.20;99.90;;;;;;4965654;28;20042;-69
2023/10/30 10:58:20;;;;;;;5.18;1.40;;;15.20;99.90;;;;;;4970558;28;20022;-71
2023/10/30 11:00:51;;;;;;;10.40;1.83;;;15.30;99.90;;;;;;4959502;28;20039;-70
2023/10/30 11:03:17;;;;;;;4.65;1.35;;;15.30;99.90;;;;;;4943233;28;20121;-70
2023/10/30 11:05:48;;;;;;;5.15;1.60;;;15.30;99.90;;;;;;4966642;28;20050;-69
2023/10/30 11:08:14;;;;;;;7.57;2.47;;;15.30;99.90;;;;;;4961767;28;20023;-71
2023/10/30 11:11:05;;;;;;;5.60;1.70;;;15.30;99.90;;;;;;4959914;28;20034;-69
2023/10/30 11:14:19;;;;;;;6.68;1.30;;;15.40;99.90;;;;;;4964418;28;20034;-69
2023/10/30 11:16:56;;;;;;;7.40;1.65;;;15.30;99.90;;;;;;4957056;28;20074;-72
2023/10/30 11:19:22;;;;;;;3.95;1.45;;;15.40;99.90;;;;;;4980642;28;20030;-70
2023/10/30 11:21:49;;;;;;;7.40;1.48;;;15.50;99.90;;;;;;4965825;28;20061;-71
2023/10/30 11:24:38;;;;;;;8.32;1.50;;;15.50;99.90;;;;;;4962460;28;20106;-68
2023/10/30 11:27:26;;;;;;;4.20;1.77;;;15.40;99.90;;;;;;4959827;28;20034;-71
2023/10/30 11:30:03;;;;;;;6.72;1.48;;;15.30;99.90;;;;;;4980128;28;20038;-75
2023/10/30 11:32:38;;;;;;;4.72;1.48;;;15.20;99.90;;;;;;4979886;28;20034;-73
2023/10/30 11:35:05;;;;;;;4.63;1.30;;;15.30;99.90;;;;;;4962704;28;20034;-69
2023/10/30 11:37:32;;;;;;;8.00;1.90;;;15.30;99.90;;;;;;4966781;28;20054;-73
2023/10/30 11:40:02;;;;;;;3.67;1.60;;;15.20;99.90;;;;;;4981940;28;20062;-72
2023/10/30 11:42:32;;;;;;;4.32;1.55;;;15.20;99.90;;;;;;4965608;28;20034;-70
2023/10/30 11:45:16;;;;;;;3.38;1.27;;;15.20;99.90;;;;;;4965507;28;20038;-69
2023/10/30 11:47:45;;;;;;;2.70;1.30;;;15.20;99.90;;;;;;4979669;28;20113;-70
2023/10/30 11:50:11;;;;;;;2.60;0.93;;;15.20;99.90;;;;;;4962325;28;20038;-72
2023/10/30 11:52:41;;;;;;;2.67;0.80;;;15.20;99.90;;;;;;4979850;28;20023;-70
2023/10/30 11:55:08;;;;;;;1.60;1.13;;;15.10;99.90;;;;;;4962915;28;20096;-69
2023/10/30 11:57:34;;;;;;;4.45;0.88;;;15.00;99.90;;;;;;4963882;28;20037;-69
2023/10/30 12:00:00;;;;;;;3.65;1.15;;;15.00;99.90;;;;;;4965356;28;20019;-71
2023/10/30 12:02:27;;;;;;;1.20;0.80;;;15.00;99.90;;;;;;4961955;28;20484;-73
2023/10/30 12:04:53;;;;;;;1.25;0.80;;;14.90;99.90;;;;;;4966393;28;20026;-69
2023/10/30 12:07:19;;;;;;;6.75;1.13;;;15.00;99.90;;;;;;4962839;28;20559;-70
2023/10/30 12:09:44;;;;;;;3.60;1.10;;;15.10;99.90;;;;;;4965341;28;20388;-70
2023/10/30 12:12:10;;;;;;;4.15;0.80;;;15.00;99.90;;;;;;4965393;28;20495;-69
2023/10/30 12:14:38;;;;;;;2.25;0.80;;;15.10;99.90;;;;;;4962817;28;20022;-74
2023/10/30 12:17:04;;;;;;;2.72;0.90;;;15.10;99.90;;;;;;4964025;28;20031;-69
2023/10/30 12:19:30;;;;;;;3.00;1.17;;;15.10;99.90;;;;;;4967845;28;20031;-70
2023/10/30 12:21:56;;;;;;;3.45;1.20;;;15.20;99.90;;;;;;4967800;28;20041;-70
2023/10/30 12:24:25;;;;;;;4.50;1.90;;;15.10;99.90;;;;;;4968015;28;20023;-68
2023/10/30 12:26:51;;;;;;;3.42;1.95;;;15.10;99.90;;;;;;4968715;28;20365;-70
2023/10/30 12:29:21;;;;;;;5.60;1.30;;;15.10;99.90;;;;;;4969213;28;20077;-69
2023/10/30 12:31:51;;;;;;;5.28;1.23;;;15.10;99.90;;;;;;4983922;28;20030;-71
2023/10/30 12:34:22;;;;;;;5.93;1.50;;;15.10;99.90;;;;;;4981208;28;20051;-68
2023/10/30 12:36:48;;;;;;;2.55;1.20;;;15.20;99.90;;;;;;4968083;28;20547;-71
2023/10/30 12:39:18;;;;;;;4.72;1.70;;;15.20;99.90;;;;;;4968056;28;20476;-70